Weather History for Mammoth, CA

Change the Weather History Date:

Thursday, January 9, 2014

  Actual Average Record
Temperature  
Mean Temperature 34 °F -  
Max Temperature 51 °F 35 °F 57 °F (2012)
Min Temperature 17 °F 20 °F 8 °F (2004)
Degree Days  
Heating Degree Days 31    
Moisture  
Dew Point 14 °F    
Average Humidity 40    
Maximum Humidity 75    
Minimum Humidity 16    
Precipitation  
Precipitation 0.00 in - - ()
Sea Level Pressure  
Sea Level Pressure 30.15 in    
Wind  
Wind Speed 8 mph (WNW)    
Max Wind Speed 21 mph    
Max Gust Speed 28 mph    
Visibility 10 miles    
Events      
Averages and records for this station are not official NWS values.
T = Trace of Precipitation, MM = Missing Value Source: NWS Daily Summary

Daily Weather History Graph

Daily Weather History Graph

Search for Another Location

Airport:

Trip Planner

Search our weather history database for the weather conditions in past years. The results will help you decide how hot, cold, wet, or windy it might be!

Date:

Astronomy

Jan. 09, 2014 Rise Set
Actual Time 7:10 AM PST 4:54 PM PST
Civil Twilight 6:41 AM PST 5:23 PM PST
Nautical Twilight 6:09 AM PST 5:56 PM PST
Astronomical Twilight 5:37 AM PST 6:27 PM PST
Moon 12:22 PM PST (1/9) 1:25 AM PST (1/9)
Length of Visible Light 10h 42m
Length of Day
9h 44m
Waxing Gibbous, 67% of the Moon is Illuminated
Jan 9
Waxing Gibbous
Jan 15
Full
Jan 23
Last Quarter
Jan 30
New
Feb 6
First Quarter

Hourly Weather History & Observations

Time (PST) Temp. Windchill Dew Point Humidity Pressure Visibility Wind Dir Wind Speed Gust Speed Precip Events Conditions
12:15 AM 19.4 °F 14.3 °F 6.8 °F 58% 30.14 in 10.0 mi NE 3.5 mph - N/A   Clear
12:35 AM 21.2 °F - 8.6 °F 58% 30.13 in 10.0 mi Calm Calm - N/A   Clear
12:55 AM 17.6 °F - 5.0 °F 58% 30.13 in 10.0 mi Calm Calm - N/A   Clear
1:15 AM 17.6 °F 12.3 °F 6.8 °F 63% 30.13 in 10.0 mi NNE 3.5 mph - N/A   Clear
1:35 AM 19.4 °F 14.3 °F 6.8 °F 58% 30.13 in 10.0 mi South 3.5 mph - N/A   Clear
1:55 AM 17.6 °F - 6.8 °F 63% 30.13 in 10.0 mi Calm Calm - N/A   Clear
2:15 AM 17.6 °F 12.3 °F 5.0 °F 58% 30.13 in 10.0 mi North 3.5 mph - N/A   Clear
2:35 AM 23.0 °F 18.4 °F 8.6 °F 54% 30.13 in 10.0 mi ESE 3.5 mph - N/A   Clear
2:55 AM 23.0 °F - 8.6 °F 54% 30.13 in 10.0 mi Calm Calm - N/A   Clear
3:15 AM 24.8 °F - 8.6 °F 50% 30.12 in 10.0 mi Calm Calm - N/A   Clear
3:35 AM 30.2 °F 23.4 °F 3.2 °F 32% 30.11 in 10.0 mi North 6.9 mph - N/A   Clear
3:55 AM 37.4 °F 33.8 °F 1.4 °F 22% 30.12 in 10.0 mi NW 4.6 mph 18.4 mph N/A   Clear
4:15 AM 41.0 °F 37.1 °F -0.4 °F 18% 30.10 in 10.0 mi West 5.8 mph 19.6 mph N/A   Scattered Clouds
4:35 AM 37.4 °F 30.8 °F 1.4 °F 22% 30.10 in 10.0 mi WNW 9.2 mph - N/A   Mostly Cloudy
4:55 AM 39.2 °F 30.8 °F -2.2 °F 17% 30.10 in 10.0 mi West 15.0 mph - N/A   Mostly Cloudy
5:15 AM 41.0 °F 31.6 °F -2.2 °F 16% 30.10 in 10.0 mi WSW 20.7 mph 25.3 mph N/A   Scattered Clouds
5:35 AM 41.0 °F 33.5 °F -0.4 °F 18% 30.12 in 10.0 mi West 13.8 mph 27.6 mph N/A   Mostly Cloudy
5:55 AM 41.0 °F 32.5 °F 3.2 °F 21% 30.11 in 10.0 mi WSW 17.3 mph 20.7 mph N/A   Overcast
6:15 AM 41.0 °F 35.2 °F 5.0 °F 23% 30.10 in 10.0 mi West 9.2 mph - N/A   Overcast
6:35 AM 39.2 °F 34.2 °F 5.0 °F 24% 30.10 in 10.0 mi West 6.9 mph - N/A   Overcast
6:55 AM 41.0 °F 34.3 °F 10.4 °F 29% 30.11 in 10.0 mi WNW 11.5 mph 18.4 mph N/A   Mostly Cloudy
7:15 AM 41.0 °F 35.2 °F 8.6 °F 26% 30.11 in 10.0 mi West 9.2 mph 16.1 mph N/A   Overcast
7:35 AM 41.0 °F 34.7 °F 8.6 °F 26% 30.11 in 10.0 mi WNW 10.4 mph 20.7 mph N/A   Overcast
7:55 AM 41.0 °F 32.8 °F 8.6 °F 26% 30.12 in 10.0 mi WNW 16.1 mph 20.7 mph N/A   Overcast
8:15 AM 41.0 °F 33.9 °F 8.6 °F 26% 30.12 in 10.0 mi NW 12.7 mph - N/A   Mostly Cloudy
8:35 AM 42.8 °F 35.1 °F 12.2 °F 29% 30.12 in 10.0 mi WNW 16.1 mph 21.9 mph N/A   Scattered Clouds
8:55 AM 42.8 °F 35.8 °F 12.2 °F 29% 30.12 in 10.0 mi WNW 13.8 mph 21.9 mph N/A   Scattered Clouds
9:15 AM 42.8 °F 36.2 °F 12.2 °F 29% 30.13 in 10.0 mi WNW 12.7 mph 20.7 mph N/A   Scattered Clouds
9:35 AM 44.6 °F 37.4 °F 12.2 °F 27% 30.14 in 10.0 mi WNW 16.1 mph 25.3 mph N/A   Scattered Clouds
9:55 AM 44.6 °F 36.6 °F 14.0 °F 29% 30.14 in 10.0 mi West 19.6 mph 24.2 mph N/A   Clear
10:15 AM 44.6 °F 37.2 °F 14.0 °F 29% 30.15 in 10.0 mi WNW 17.3 mph 21.9 mph N/A   Clear
10:35 AM 46.4 °F 38.7 °F 14.0 °F 27% 30.15 in 10.0 mi WNW 20.7 mph 24.2 mph N/A   Clear
10:55 AM 46.4 °F 39.5 °F 14.0 °F 27% 30.15 in 10.0 mi West 17.3 mph 24.2 mph N/A   Clear
11:15 AM 48.2 °F - 14.0 °F 25% 30.13 in 10.0 mi West 20.7 mph 26.5 mph N/A   Clear
11:35 AM 46.4 °F 40.4 °F 14.0 °F 27% 30.12 in 10.0 mi West 13.8 mph 20.7 mph N/A   Clear
11:55 AM 48.2 °F - 14.0 °F 25% 30.12 in 10.0 mi WNW 13.8 mph 19.6 mph N/A   Clear
12:35 PM 48.2 °F - 14.0 °F 25% 30.09 in 10.0 mi WNW 17.3 mph 21.9 mph N/A   Clear
12:55 PM 50.0 °F - 14.0 °F 24% 30.09 in 10.0 mi WNW 13.8 mph 20.7 mph N/A   Clear
1:15 PM 50.0 °F - 15.8 °F 26% 30.08 in 10.0 mi West 16.1 mph 24.2 mph N/A   Clear
1:35 PM 51.8 °F - 15.8 °F 24% 30.08 in 10.0 mi West 13.8 mph 20.7 mph N/A   Clear
1:55 PM 51.8 °F - 15.8 °F 24% 30.08 in 10.0 mi WNW 12.7 mph 16.1 mph N/A   Clear
2:15 PM 51.8 °F - 15.8 °F 24% 30.08 in 10.0 mi WNW 10.4 mph - N/A   Clear
3:35 PM 51.8 °F - 17.6 °F 26% 30.12 in 10.0 mi NW 8.1 mph - N/A   Scattered Clouds
3:55 PM 50.0 °F - 19.4 °F 30% 30.14 in 10.0 mi NW 11.5 mph 25.3 mph N/A   Scattered Clouds
4:15 PM 48.2 °F - 19.4 °F 32% 30.15 in 10.0 mi NNW 12.7 mph 21.9 mph N/A   Scattered Clouds
4:35 PM 46.4 °F 40.7 °F 19.4 °F 34% 30.16 in 10.0 mi NNW 12.7 mph 19.6 mph N/A   Mostly Cloudy
4:55 PM 46.4 °F 41.1 °F 19.4 °F 34% 30.16 in 10.0 mi NW 11.5 mph 16.1 mph N/A   Mostly Cloudy
5:15 PM 44.6 °F 39.7 °F 21.2 °F 39% 30.17 in 10.0 mi NNW 9.2 mph - N/A   Mostly Cloudy
5:35 PM 44.6 °F 39.7 °F 21.2 °F 39% 30.18 in 10.0 mi NW 9.2 mph 16.1 mph N/A   Overcast
5:55 PM 44.6 °F 41.4 °F 23.0 °F 43% 30.17 in 10.0 mi WNW 5.8 mph - N/A   Overcast
6:15 PM 44.6 °F 40.7 °F 21.2 °F 39% 30.18 in 10.0 mi WNW 6.9 mph - N/A   Overcast
6:35 PM 44.6 °F 41.4 °F 23.0 °F 43% 30.20 in 10.0 mi NNW 5.8 mph 18.4 mph N/A   Overcast
6:55 PM 44.6 °F 40.7 °F 24.8 °F 46% 30.21 in 10.0 mi West 6.9 mph - N/A   Overcast
7:15 PM 42.8 °F 37.5 °F 24.8 °F 49% 30.22 in 10.0 mi WNW 9.2 mph - N/A   Overcast
7:35 PM 42.8 °F 36.6 °F 24.8 °F 49% 30.20 in 10.0 mi WSW 11.5 mph - N/A   Scattered Clouds
7:55 PM 41.0 °F 35.2 °F 24.8 °F 53% 30.20 in 10.0 mi WSW 9.2 mph - N/A   Clear
8:15 PM 39.2 °F 33.0 °F 24.8 °F 56% 30.22 in 10.0 mi WNW 9.2 mph - N/A   Clear
8:35 PM 39.2 °F 35.0 °F 23.0 °F 52% 30.23 in 10.0 mi NW 5.8 mph - N/A   Clear
8:55 PM 39.2 °F 33.0 °F 24.8 °F 56% 30.24 in 10.0 mi WNW 9.2 mph - N/A   Clear
9:15 PM 41.0 °F 38.0 °F 24.8 °F 53% 30.24 in 10.0 mi WNW 4.6 mph 9.2 mph N/A   Clear
9:35 PM 33.8 °F 30.8 °F 23.0 °F 65% 30.24 in 10.0 mi North 3.5 mph - N/A   Clear
9:55 PM 28.4 °F 21.2 °F 21.2 °F 74% 30.25 in 10.0 mi NNW 6.9 mph - N/A   Clear
10:15 PM 28.4 °F - 21.2 °F 74% 30.24 in 10.0 mi Calm Calm - N/A   Clear
10:35 PM 30.2 °F 23.4 °F 21.2 °F 69% 30.25 in 10.0 mi NNE 6.9 mph - N/A   Clear
10:55 PM 30.2 °F - 23.0 °F 75% 30.25 in 10.0 mi Calm Calm - N/A   Clear
11:15 PM 30.2 °F 25.4 °F 21.2 °F 69% 30.25 in 10.0 mi NNW 4.6 mph - N/A   Clear
11:35 PM 28.4 °F 22.2 °F 21.2 °F 74% 30.25 in 10.0 mi North 5.8 mph - N/A   Clear
11:55 PM 30.2 °F 26.7 °F 23.0 °F 75% 30.25 in 10.0 mi North 3.5 mph - N/A   Clear